createdAt,value
2023-04-15T00:02:20.425Z,21.10
2023-04-15T00:05:06.396Z,21.09
2023-04-15T00:07:51.881Z,21.10
2023-04-15T00:10:37.370Z,21.09
2023-04-15T00:13:22.622Z,21.09
2023-04-15T00:16:09.263Z,21.11
2023-04-15T00:18:54.770Z,21.12
2023-04-15T00:21:39.908Z,21.13
2023-04-15T00:24:25.236Z,21.12
2023-04-15T00:27:10.640Z,21.11
2023-04-15T00:29:56.343Z,21.12
2023-04-15T00:32:42.413Z,21.10
2023-04-15T00:35:28.137Z,21.10
2023-04-15T00:38:13.448Z,21.10
2023-04-15T00:41:00.815Z,21.08
2023-04-15T00:43:46.065Z,21.08
2023-04-15T00:46:33.649Z,21.07
2023-04-15T00:49:19.375Z,21.07
2023-04-15T00:52:04.900Z,21.06
2023-04-15T00:54:51.541Z,21.07
2023-04-15T00:57:37.186Z,21.06
2023-04-15T01:00:22.825Z,21.06
2023-04-15T01:03:09.040Z,21.06
2023-04-15T01:05:58.372Z,21.04
2023-04-15T01:08:44.298Z,21.05
2023-04-15T01:11:30.683Z,21.04
2023-04-15T01:14:16.340Z,21.04
2023-04-15T01:17:02.278Z,21.02
2023-04-15T01:19:47.884Z,21.02
2023-04-15T01:22:34.489Z,21.01
2023-04-15T01:25:42.005Z,21.00
2023-04-15T01:28:28.480Z,21.01
2023-04-15T01:31:15.209Z,21.00
2023-04-15T01:34:00.951Z,21.00
2023-04-15T01:36:46.853Z,20.99
2023-04-15T01:39:32.608Z,20.99
2023-04-15T01:42:17.852Z,20.99
2023-04-15T01:45:03.655Z,20.99
2023-04-15T01:47:49.408Z,20.97
2023-04-15T01:50:36.952Z,20.97
2023-04-15T01:53:22.140Z,20.97
2023-04-15T01:56:08.163Z,20.97
2023-04-15T01:58:53.834Z,20.97
2023-04-15T02:01:39.757Z,20.96
2023-04-15T02:04:25.090Z,20.96
2023-04-15T02:07:10.563Z,20.95
2023-04-15T02:09:55.903Z,20.95
2023-04-15T02:12:41.201Z,20.95
2023-04-15T02:15:26.396Z,20.96
2023-04-15T02:18:11.790Z,20.95
2023-04-15T02:20:58.690Z,20.95
2023-04-15T02:23:47.044Z,20.94
2023-04-15T02:26:33.430Z,20.94
2023-04-15T02:29:18.789Z,20.93
2023-04-15T02:32:04.472Z,20.93
2023-04-15T02:34:49.742Z,20.92
2023-04-15T02:37:41.659Z,20.93
2023-04-15T02:40:28.006Z,20.91
2023-04-15T02:43:13.536Z,20.92
2023-04-15T02:45:58.949Z,20.92
2023-04-15T02:48:45.998Z,20.92
2023-04-15T02:51:32.351Z,20.92
2023-04-15T02:54:19.781Z,20.91
2023-04-15T02:57:06.840Z,20.91
2023-04-15T02:59:52.381Z,20.91
2023-04-15T03:02:39.496Z,20.91
2023-04-15T03:05:25.953Z,20.90
2023-04-15T03:08:11.740Z,20.90
2023-04-15T03:11:00.737Z,20.90
2023-04-15T03:13:46.414Z,20.90
2023-04-15T03:16:45.850Z,20.89
2023-04-15T03:19:34.323Z,20.88
2023-04-15T03:22:20.175Z,20.88
2023-04-15T03:25:07.012Z,20.88
2023-04-15T03:27:52.252Z,20.87
2023-04-15T03:30:37.573Z,20.87
2023-04-15T03:33:22.820Z,20.88
2023-04-15T03:36:08.193Z,20.88
2023-04-15T03:38:53.520Z,20.87
2023-04-15T03:41:38.758Z,20.88
2023-04-15T03:44:24.220Z,20.89
2023-04-15T03:47:09.517Z,20.89
2023-04-15T03:49:54.743Z,20.88
2023-04-15T03:52:40.073Z,20.88
2023-04-15T03:55:25.586Z,20.89
2023-04-15T03:58:13.044Z,20.89
2023-04-15T04:00:58.444Z,20.88
2023-04-15T04:03:43.867Z,20.89
2023-04-15T04:06:29.471Z,20.90
2023-04-15T04:09:14.884Z,20.90
2023-04-15T04:12:00.285Z,20.90
2023-04-15T04:14:45.663Z,20.91
2023-04-15T04:17:31.297Z,20.90
2023-04-15T04:20:17.304Z,20.92
2023-04-15T04:23:02.597Z,20.91
2023-04-15T04:25:47.963Z,20.92
2023-04-15T04:28:33.409Z,20.93
2023-04-15T04:31:19.538Z,20.93
2023-04-15T04:34:04.891Z,20.94
2023-04-15T04:36:50.242Z,20.95
2023-04-15T04:39:35.957Z,20.95
2023-04-15T04:42:22.291Z,20.97
2023-04-15T04:45:08.737Z,20.98
2023-04-15T04:47:53.920Z,21.01
2023-04-15T04:50:39.450Z,21.03
2023-04-15T04:53:24.945Z,21.03
2023-04-15T04:56:10.258Z,21.06
2023-04-15T04:58:56.622Z,21.10
2023-04-15T05:01:42.184Z,21.15
2023-04-15T05:04:28.160Z,21.18
2023-04-15T05:07:13.661Z,21.22
2023-04-15T05:09:58.927Z,21.24
2023-04-15T05:12:44.391Z,21.28
2023-04-15T05:15:30.027Z,21.33
2023-04-15T05:18:15.721Z,21.35
2023-04-15T05:21:02.954Z,21.38
2023-04-15T05:23:48.467Z,21.42
2023-04-15T05:26:33.758Z,21.44
2023-04-15T05:29:19.252Z,21.48
2023-04-15T05:32:05.258Z,21.48
2023-04-15T05:34:51.118Z,21.53
2023-04-15T05:37:36.639Z,21.55
2023-04-15T05:40:22.367Z,21.53
2023-04-15T05:43:08.324Z,21.57
2023-04-15T05:45:54.039Z,21.61
2023-04-15T05:48:39.376Z,21.62
2023-04-15T05:51:24.609Z,21.63
2023-04-15T05:54:10.128Z,21.65
2023-04-15T05:56:56.438Z,21.63
2023-04-15T05:59:42.522Z,21.64
2023-04-15T06:02:28.160Z,21.63
2023-04-15T06:05:14.454Z,21.61
2023-04-15T06:07:59.670Z,21.62
2023-04-15T06:10:45.048Z,21.61
2023-04-15T06:13:35.404Z,21.63
2023-04-15T06:16:23.842Z,21.66
2023-04-15T06:19:12.553Z,21.65
2023-04-15T06:21:58.827Z,21.68
2023-04-15T06:24:44.310Z,21.73
2023-04-15T06:27:30.052Z,21.74
2023-04-15T06:30:15.390Z,21.77
2023-04-15T06:33:01.575Z,21.80
2023-04-15T06:35:47.684Z,21.82
2023-04-15T06:38:32.836Z,21.84
2023-04-15T06:41:18.239Z,21.88
2023-04-15T06:44:05.642Z,21.91
2023-04-15T06:46:58.117Z,21.92
2023-04-15T06:50:15.410Z,21.95
2023-04-15T06:53:05.095Z,21.99
2023-04-15T06:55:53.691Z,22.00
2023-04-15T06:58:39.122Z,22.01
2023-04-15T07:01:24.703Z,22.02
2023-04-15T07:04:11.176Z,22.01
2023-04-15T07:06:58.307Z,22.09
2023-04-15T07:09:45.582Z,22.07
2023-04-15T07:12:32.222Z,22.09
2023-04-15T07:15:17.839Z,22.09
2023-04-15T07:18:03.526Z,22.08
2023-04-15T07:20:49.045Z,22.08
2023-04-15T07:23:34.289Z,22.09
2023-04-15T07:26:19.721Z,22.10
2023-04-15T07:29:05.068Z,22.10
2023-04-15T07:31:50.489Z,22.10
2023-04-15T07:34:38.123Z,22.07
2023-04-15T07:37:24.444Z,22.09
2023-04-15T07:40:10.746Z,22.10
2023-04-15T07:42:57.321Z,22.12
2023-04-15T07:45:43.521Z,22.10
2023-04-15T07:48:31.704Z,22.14
2023-04-15T07:51:17.820Z,22.12
2023-04-15T07:54:04.469Z,22.10
2023-04-15T07:56:50.585Z,22.11
2023-04-15T07:59:35.949Z,22.09
2023-04-15T08:02:22.735Z,22.13
2023-04-15T08:05:09.758Z,22.14
2023-04-15T08:07:55.318Z,22.15
2023-04-15T08:10:42.544Z,22.16
2023-04-15T08:13:28.237Z,22.15
2023-04-15T08:16:22.724Z,22.09
2023-04-15T08:19:08.229Z,22.08
2023-04-15T08:21:56.654Z,22.06
2023-04-15T08:24:42.848Z,22.05
2023-04-15T08:27:28.653Z,22.05
2023-04-15T08:30:15.019Z,22.09
2023-04-15T08:33:04.571Z,22.12
2023-04-15T08:35:50.219Z,22.14
2023-04-15T08:38:38.115Z,22.15
2023-04-15T08:41:28.032Z,22.15
2023-04-15T08:44:17.830Z,22.16
2023-04-15T08:47:08.003Z,22.18
2023-04-15T08:49:55.640Z,22.19
2023-04-15T08:52:42.725Z,22.15
2023-04-15T08:55:36.435Z,22.10
2023-04-15T08:58:26.765Z,22.10
2023-04-15T09:01:18.388Z,22.11
2023-04-15T09:04:09.203Z,22.12
2023-04-15T09:06:54.734Z,22.11
2023-04-15T09:09:42.225Z,22.15
2023-04-15T09:12:30.061Z,22.17
2023-04-15T09:15:18.756Z,22.21
2023-04-15T09:18:05.935Z,22.22
2023-04-15T09:20:53.616Z,22.24
2023-04-15T09:23:41.348Z,22.23
2023-04-15T09:26:35.020Z,22.20
2023-04-15T09:29:21.123Z,22.22
2023-04-15T09:32:14.071Z,22.19
2023-04-15T09:35:11.242Z,22.18
2023-04-15T09:38:07.443Z,22.18
2023-04-15T09:40:52.692Z,22.17
2023-04-15T09:43:40.045Z,22.16
2023-04-15T09:46:46.250Z,22.17
2023-04-15T09:49:32.020Z,22.16
2023-04-15T09:52:17.344Z,22.19
2023-04-15T09:55:02.661Z,22.19
2023-04-15T09:57:48.273Z,22.18
2023-04-15T10:00:34.082Z,22.19
2023-04-15T10:03:22.182Z,22.20
2023-04-15T10:06:09.182Z,22.17
2023-04-15T10:08:56.494Z,22.19
2023-04-15T10:11:43.458Z,22.18
2023-04-15T10:14:32.993Z,22.20
2023-04-15T10:17:18.704Z,22.18
2023-04-15T10:20:05.762Z,22.22
2023-04-15T10:22:53.030Z,22.21
2023-04-15T10:25:38.974Z,22.20
2023-04-15T10:28:24.871Z,22.18
2023-04-15T10:31:13.817Z,22.15
2023-04-15T10:34:04.321Z,22.14
2023-04-15T10:36:50.235Z,22.15
2023-04-15T10:39:43.899Z,22.16
2023-04-15T10:42:35.332Z,22.16
2023-04-15T10:45:22.394Z,22.18
2023-04-15T10:48:09.227Z,22.15
2023-04-15T10:51:05.183Z,22.18
2023-04-15T10:53:50.645Z,22.20
2023-04-15T10:56:35.961Z,22.22
2023-04-15T10:59:22.447Z,22.20
2023-04-15T11:02:53.782Z,22.24
2023-04-15T11:05:39.604Z,22.25
2023-04-15T11:08:50.421Z,22.27
2023-04-15T11:12:09.793Z,22.27
2023-04-15T11:14:55.431Z,22.28
2023-04-15T11:17:41.311Z,22.27
2023-04-15T11:20:27.561Z,22.29
2023-04-15T11:23:15.746Z,22.34
2023-04-15T11:26:06.594Z,22.36
2023-04-15T11:28:52.909Z,22.38
2023-04-15T11:31:38.799Z,22.43
2023-04-15T11:34:24.166Z,22.45
2023-04-15T11:37:10.215Z,22.45
2023-04-15T11:39:55.898Z,22.45
2023-04-15T11:42:49.561Z,22.46
2023-04-15T11:45:37.846Z,22.46
2023-04-15T11:48:27.428Z,22.47
2023-04-15T11:51:14.531Z,22.46
2023-04-15T11:54:00.793Z,22.46
2023-04-15T11:56:51.845Z,22.49
2023-04-15T11:59:45.777Z,22.52
2023-04-15T12:02:33.161Z,22.53
2023-04-15T12:05:19.015Z,22.54
2023-04-15T12:08:04.387Z,22.54
2023-04-15T12:10:49.979Z,22.56
2023-04-15T12:13:35.502Z,22.54
2023-04-15T12:16:22.356Z,22.52
2023-04-15T12:19:11.528Z,22.49
2023-04-15T12:22:02.583Z,22.46
2023-04-15T12:24:54.170Z,22.49
2023-04-15T12:27:39.445Z,22.47
2023-04-15T12:30:24.690Z,22.47
2023-04-15T12:33:10.478Z,22.48
2023-04-15T12:35:55.850Z,22.49
2023-04-15T12:38:41.370Z,22.49
2023-04-15T12:41:27.176Z,22.49
2023-04-15T12:44:12.791Z,22.50
2023-04-15T12:47:03.225Z,22.49
2023-04-15T12:49:49.751Z,22.44
2023-04-15T12:52:35.626Z,22.47
2023-04-15T12:55:21.707Z,22.46
2023-04-15T12:58:07.291Z,22.49
2023-04-15T13:00:53.710Z,22.50
2023-04-15T13:03:40.550Z,22.49
2023-04-15T13:06:26.247Z,22.40
2023-04-15T13:09:13.702Z,22.41
2023-04-15T13:11:59.643Z,22.41
2023-04-15T13:14:46.113Z,22.40
2023-04-15T13:17:31.746Z,22.38
2023-04-15T13:20:17.417Z,22.37
2023-04-15T13:23:03.128Z,22.36
2023-04-15T13:25:48.634Z,22.38
2023-04-15T13:28:34.711Z,22.36
2023-04-15T13:31:20.579Z,22.33
2023-04-15T13:34:06.443Z,22.34
2023-04-15T13:36:52.264Z,22.33
2023-04-15T13:39:37.616Z,22.34
2023-04-15T13:42:24.079Z,22.37
2023-04-15T13:45:10.168Z,22.34
2023-04-15T13:47:57.268Z,22.33
2023-04-15T13:50:45.442Z,22.35
2023-04-15T13:53:38.228Z,22.34
2023-04-15T13:56:24.945Z,22.38
2023-04-15T13:59:10.835Z,22.38
2023-04-15T14:01:56.661Z,22.38
2023-04-15T14:04:42.421Z,22.42
2023-04-15T14:07:29.829Z,22.44
2023-04-15T14:10:15.267Z,22.48
2023-04-15T14:13:00.620Z,22.51
2023-04-15T14:15:45.989Z,22.53
2023-04-15T14:18:31.450Z,22.54
2023-04-15T14:21:16.650Z,22.56
2023-04-15T14:24:01.948Z,22.58
2023-04-15T14:26:48.322Z,22.58
2023-04-15T14:29:33.602Z,22.58
2023-04-15T14:32:19.029Z,22.61
2023-04-15T14:35:04.540Z,22.64
2023-04-15T14:37:50.318Z,22.66
2023-04-15T14:40:35.709Z,22.59
2023-04-15T14:43:21.873Z,22.63
2023-04-15T14:46:08.611Z,22.66
2023-04-15T14:48:55.687Z,22.70
2023-04-15T14:51:41.882Z,22.72
2023-04-15T14:54:27.362Z,22.69
2023-04-15T14:57:13.954Z,22.68
2023-04-15T14:59:59.873Z,22.66
2023-04-15T15:02:47.485Z,22.66
2023-04-15T15:05:33.828Z,22.66
2023-04-15T15:08:19.456Z,22.67
2023-04-15T15:11:06.042Z,22.67
2023-04-15T15:13:53.237Z,22.63
2023-04-15T15:16:39.094Z,22.65
2023-04-15T15:19:25.008Z,22.63
2023-04-15T15:22:10.629Z,22.66
2023-04-15T15:24:59.339Z,22.66
2023-04-15T15:27:44.743Z,22.68
2023-04-15T15:30:30.761Z,22.68
2023-04-15T15:33:16.909Z,22.73
2023-04-15T15:36:03.286Z,22.75
2023-04-15T15:38:49.307Z,22.73
2023-04-15T15:41:40.451Z,22.67
2023-04-15T15:44:26.204Z,22.69
2023-04-15T15:47:11.897Z,22.68
2023-04-15T15:50:00.524Z,22.70
2023-04-15T15:52:46.504Z,22.71
2023-04-15T15:55:31.954Z,22.73
2023-04-15T15:58:17.588Z,22.71
2023-04-15T16:01:03.124Z,22.72
2023-04-15T16:03:48.860Z,22.73
2023-04-15T16:06:35.399Z,22.73
2023-04-15T16:09:21.825Z,22.73
2023-04-15T16:12:07.086Z,22.72
2023-04-15T16:14:53.251Z,22.72
2023-04-15T16:17:39.389Z,22.70
2023-04-15T16:20:25.143Z,22.72
2023-04-15T16:23:16.192Z,22.71
2023-04-15T16:26:01.612Z,22.68
2023-04-15T16:28:46.905Z,22.69
2023-04-15T16:31:32.259Z,22.74
2023-04-15T16:34:18.640Z,22.73
2023-04-15T16:37:07.300Z,22.73
2023-04-15T16:39:53.404Z,22.73
2023-04-15T16:42:39.799Z,22.71
2023-04-15T16:45:25.406Z,22.72
2023-04-15T16:48:11.012Z,22.70
2023-04-15T16:50:57.206Z,22.72
2023-04-15T16:53:44.314Z,22.73
2023-04-15T16:56:29.767Z,22.72
2023-04-15T16:59:14.931Z,22.70
2023-04-15T17:02:00.750Z,22.70
2023-04-15T17:04:46.321Z,22.69
2023-04-15T17:07:32.117Z,22.72
2023-04-15T17:10:17.588Z,22.71
2023-04-15T17:13:03.076Z,22.71
2023-04-15T17:15:48.614Z,22.71
2023-04-15T17:18:34.408Z,22.71
2023-04-15T17:21:19.983Z,22.68
2023-04-15T17:24:06.292Z,22.66
2023-04-15T17:26:53.786Z,22.65
2023-04-15T17:29:39.549Z,22.65
2023-04-15T17:32:32.027Z,22.63
2023-04-15T17:35:24.943Z,22.64
2023-04-15T17:38:11.742Z,22.66
2023-04-15T17:40:57.184Z,22.64
2023-04-15T17:43:43.101Z,22.64
2023-04-15T17:46:28.918Z,22.67
2023-04-15T17:49:14.409Z,22.68
2023-04-15T17:52:01.285Z,22.68
2023-04-15T17:54:46.993Z,22.70
2023-04-15T17:57:32.716Z,22.70
2023-04-15T18:00:18.234Z,22.70
2023-04-15T18:03:04.488Z,22.69
2023-04-15T18:05:50.727Z,22.66
2023-04-15T18:08:36.802Z,22.62
2023-04-15T18:11:22.771Z,22.59
2023-04-15T18:14:08.835Z,22.61
2023-04-15T18:16:54.675Z,22.59
2023-04-15T18:19:41.780Z,22.58
2023-04-15T18:22:28.362Z,22.57
2023-04-15T18:25:13.941Z,22.58
2023-04-15T18:27:59.951Z,22.59
2023-04-15T18:30:45.790Z,22.61
2023-04-15T18:33:31.224Z,22.62
2023-04-15T18:36:17.340Z,22.61
2023-04-15T18:39:02.917Z,22.62
2023-04-15T18:41:48.917Z,22.65
2023-04-15T18:44:34.290Z,22.65
2023-04-15T18:47:20.710Z,22.68
2023-04-15T18:50:09.636Z,22.69
2023-04-15T18:52:58.200Z,22.68
2023-04-15T18:55:44.805Z,22.68
2023-04-15T18:59:19.053Z,22.71
2023-04-15T19:01:44.183Z,22.73
2023-04-15T19:04:30.638Z,22.71
2023-04-15T19:07:16.585Z,22.73
2023-04-15T19:10:06.493Z,22.77
2023-04-15T19:12:52.168Z,22.77
2023-04-15T19:15:37.703Z,22.77
2023-04-15T19:18:22.798Z,22.76
2023-04-15T19:21:08.603Z,22.79
2023-04-15T19:23:56.637Z,22.78
2023-04-15T19:26:42.776Z,22.79
2023-04-15T19:29:31.327Z,22.79
2023-04-15T19:32:17.636Z,22.79
2023-04-15T19:35:03.390Z,22.77
2023-04-15T19:37:49.240Z,22.76
2023-04-15T19:40:34.741Z,22.78
2023-04-15T19:43:20.145Z,22.77
2023-04-15T19:46:06.731Z,22.79
2023-04-15T19:48:53.322Z,22.81
2023-04-15T19:51:39.954Z,22.80
2023-04-15T19:54:26.128Z,22.80
2023-04-15T19:57:11.609Z,22.81
2023-04-15T19:59:57.594Z,22.81
2023-04-15T20:02:42.996Z,22.80
2023-04-15T20:05:29.512Z,22.80
2023-04-15T20:08:15.451Z,22.81
2023-04-15T20:11:01.732Z,22.80
2023-04-15T20:13:47.418Z,22.80
2023-04-15T20:16:34.960Z,22.80
2023-04-15T20:19:20.618Z,22.80
2023-04-15T20:22:05.994Z,22.81
2023-04-15T20:24:51.325Z,22.80
2023-04-15T20:27:36.806Z,22.80
2023-04-15T20:30:22.564Z,22.81
2023-04-15T20:33:08.318Z,22.83
2023-04-15T20:35:54.611Z,22.81
2023-04-15T20:38:40.644Z,22.84
2023-04-15T20:41:26.473Z,22.83
2023-04-15T20:44:12.129Z,22.82
2023-04-15T20:46:58.007Z,22.80
2023-04-15T20:49:43.422Z,22.82
2023-04-15T20:52:29.146Z,22.83
2023-04-15T20:55:15.027Z,22.82
2023-04-15T20:58:00.491Z,22.77
2023-04-15T21:00:46.261Z,22.77
2023-04-15T21:03:31.540Z,22.77
2023-04-15T21:06:17.940Z,22.77
2023-04-15T21:09:03.449Z,22.77
2023-04-15T21:14:39.647Z,22.83
2023-04-15T21:17:25.137Z,22.81
2023-04-15T21:20:11.343Z,22.83
2023-04-15T21:22:56.581Z,22.83
2023-04-15T21:25:41.900Z,22.81
2023-04-15T21:28:30.630Z,22.81
2023-04-15T21:31:16.292Z,22.82
2023-04-15T21:34:02.155Z,22.82
2023-04-15T21:36:47.875Z,22.81
2023-04-15T21:39:33.174Z,22.83
2023-04-15T21:42:18.910Z,22.85
2023-04-15T21:45:04.535Z,22.86
2023-04-15T21:48:05.870Z,22.85
2023-04-15T21:51:01.660Z,22.85
2023-04-15T21:53:47.090Z,22.84
2023-04-15T21:56:32.893Z,22.83
2023-04-15T21:59:18.358Z,22.84
2023-04-15T22:02:03.733Z,22.85
2023-04-15T22:04:48.799Z,22.81
2023-04-15T22:07:34.420Z,22.81
2023-04-15T22:10:20.865Z,22.81
2023-04-15T22:13:08.764Z,22.81
2023-04-15T22:15:54.364Z,22.81
2023-04-15T22:18:39.646Z,22.82
2023-04-15T22:21:25.013Z,22.84
2023-04-15T22:24:39.274Z,22.82
2023-04-15T22:27:15.983Z,22.80
2023-04-15T22:30:01.246Z,22.80
2023-04-15T22:32:46.666Z,22.77
2023-04-15T22:35:31.812Z,22.72
2023-04-15T22:38:17.173Z,22.68
2023-04-15T22:41:02.399Z,22.67
2023-04-15T22:43:47.695Z,22.65
2023-04-15T22:46:33.378Z,22.61
2023-04-15T22:49:18.797Z,22.60
2023-04-15T22:52:04.295Z,22.56
2023-04-15T22:54:49.576Z,22.52
2023-04-15T22:57:34.722Z,22.48
2023-04-15T23:00:20.119Z,22.46
2023-04-15T23:03:05.728Z,22.40
2023-04-15T23:05:52.978Z,22.39
2023-04-15T23:08:39.172Z,22.35
2023-04-15T23:11:24.372Z,22.32
2023-04-15T23:14:09.673Z,22.31
2023-04-15T23:16:55.224Z,22.28
2023-04-15T23:19:40.843Z,22.26
2023-04-15T23:22:26.109Z,22.20
2023-04-15T23:25:11.355Z,22.17
2023-04-15T23:27:56.794Z,22.16
2023-04-15T23:30:42.136Z,22.13
2023-04-15T23:33:27.436Z,22.11
2023-04-15T23:36:12.733Z,22.09
2023-04-15T23:38:58.007Z,22.08
2023-04-15T23:41:43.153Z,22.05
2023-04-15T23:44:28.424Z,22.02
2023-04-15T23:47:13.827Z,22.00
2023-04-15T23:49:58.934Z,22.00
2023-04-15T23:52:44.386Z,21.97
2023-04-15T23:55:30.779Z,21.94
2023-04-15T23:58:16.092Z,21.94
